Accueil
METAR-TAF:

METAR-TAF

Aéroports :

Aéroport de Caen - Carpiquet

Caen, France

latitude: 49-11N, longitude: 000-27W, altitude: 78 m

Observation

Le bulletin a été fait il y a 23 minutes, à 05:00 UTC
Vent 9 kt de sud
Température 4°C
Humidité 87%
Pression 1025 hPa
Visibilité 10 km ou plus
pas de nuages en-dessous de 1500 mètres et pas de cumulonimbus.

METAR: LFRK 160500Z AUTO 18009KT CAVOK 04/02 Q1025

Heure: 06:23 (05:23 UTC)

Prévision

Le bulletin a été fait il y a 15 heures et 23 minutes, à 14:00 UTC
Prévision valable du 15 à 15 UTC au 15 à 24 UTC
Vent 5 kt de sud/sud-est
Visibilité 10 km ou plus
pas de nuages en-dessous de 1500 mètres et pas de cumulonimbus.
Probabilité 40% :
Temporairement
du 15 à 21 UTC au 15 à 24 UTC
Visibilité: 3000 m
brume

TAF: LFRK 151400Z 1515/1524 15005KT CAVOK PROB40 TEMPO 1521/1524 3000 BR

Observations et prévisions météorologiques de plus de 4000 aéroports (messages METAR et TAF).

Les stations disponibles sont représentées par des disques jaunes et rouges sur la carte.

Passer la souris dessus pour voir le nom de la station.

Cliquer dessus pour voir les observations et prévisions météorologiques.

Pour changer de carte: cliquez sur les boutons verts avec une croix noire pour zoomer, sur le bouton vert avec un tiret pour effectuer un zoom arrière, ou sur les flèches vertes pour les cartes adjacentes.


METAR-TAF: